DW4212 La Cabrera ES current weather conditions

sailwx.info

Wind from 322 at 3 knots gusting 6

Air temperature 31.1° C
Dewpoint 4.0° C

Last reported at 2014-Aug-27 16:49 UTC.
Time now 2014-Aug-27 17:15 UTC

Location: N 40°53' W 003°35'.
View on Google Maps.

See reports from other nearby stations

  
Tides and Currents Weather Stations Pressure Air Temp Water Temp Dewpoint Dewpoint Depression Visibility Wind Speed Wind Dir Waves Ship Positions
date/time (UTC)wind fromknots sea level pressurealtimeterstation pressurevisibilityair tempwater tempwave heightnotes
2014-Aug-27 16:49 322 3 gusting 6 31.1
2014-Aug-27 16:39 340 2 gusting 7 31.1
2014-Aug-27 16:29 321 3 gusting 9 31.1
2014-Aug-27 16:19 311 2 gusting 8 31.7
2014-Aug-27 16:09 360 4 gusting 10 31.7
2014-Aug-27 15:59 005 5 gusting 10 31.1
2014-Aug-27 15:50 326 3 gusting 10 31.7
2014-Aug-27 15:39 336 2 gusting 10 32.2
2014-Aug-27 15:29 319 2 gusting 9 32.2
2014-Aug-27 15:19 315 3 gusting 11 32.2
2014-Aug-27 15:09 307 2 gusting 7 32.2
2014-Aug-27 14:59 360 5 gusting 12 32.8
2014-Aug-27 14:49 318 1 gusting 11 32.2
2014-Aug-27 14:39 323 3 gusting 11 32.2
2014-Aug-27 14:29 314 2 gusting 6 33.3
2014-Aug-27 14:19 270 0 gusting 8 33.3
2014-Aug-27 14:09 300 2 gusting 11 33.3
2014-Aug-27 13:59 309 1 gusting 6 32.8
2014-Aug-27 13:49 254 0 gusting 6 32.2
2014-Aug-27 13:39 233 284 gusting 284 31.7
2014-Aug-27 13:29 252 1 gusting 7 32.2
2014-Aug-27 13:19 202 2 gusting 9 31.7
2014-Aug-27 13:09 204 1 gusting 4 31.1
2014-Aug-27 13:00 182 1 gusting 9 30.6
2014-Aug-27 12:49 102 0 gusting 6 30.6
2014-Aug-27 12:39 182 0 gusting 5 30.6
2014-Aug-27 12:29 173 1 gusting 5 30.0
2014-Aug-27 12:19 178 0 gusting 6 29.4
2014-Aug-27 12:09 186 0 gusting 6 30.0
2014-Aug-27 11:59 173 1 gusting 6 28.9
2014-Aug-27 11:49 169 29.4
2014-Aug-27 11:39 078 0 gusting 6 28.9
2014-Aug-27 11:29 147 28.9
2014-Aug-27 11:19 169 1 gusting 5 28.9
2014-Aug-27 11:09 115 28.3
2014-Aug-27 10:59 169 28.3
2014-Aug-27 10:49 186 0 gusting 7 27.8
2014-Aug-27 10:39 173 0 gusting 6 28.3
2014-Aug-27 10:29 180 0 gusting 6 27.8
2014-Aug-27 10:19 194 0 gusting 5 27.8
2014-Aug-27 10:09 177 0 gusting 4 27.2
2014-Aug-27 09:59 173 1 gusting 6 27.2
2014-Aug-27 09:49 190 27.8
2014-Aug-27 09:39 258 0 gusting 6 27.2
2014-Aug-27 09:29 201 26.7
2014-Aug-27 09:19 196 0 gusting 2 26.7
2014-Aug-27 09:09 195 0 gusting 3 26.1
2014-Aug-27 08:59 176 1 gusting 5 25.6
2014-Aug-27 08:49 171 25.6
2014-Aug-27 08:39 202 0 gusting 3 25.0
2014-Aug-27 08:29 360 24.4
2014-Aug-27 08:19 360 23.3
2014-Aug-27 08:09 360 22.2
2014-Aug-27 07:59 360 21.7
2014-Aug-27 07:49 355 1 gusting 5 21.7
2014-Aug-27 07:39 350 0 gusting 4 21.1
2014-Aug-27 07:29 351 21.1
2014-Aug-27 07:19 351 0 gusting 4 20.6
2014-Aug-27 07:09 351 20.0
2014-Aug-27 06:59 350 0 gusting 5 19.4
2014-Aug-27 06:49 350 18.9
2014-Aug-27 06:39 355 2 gusting 7 18.3
2014-Aug-27 06:29 005 3 gusting 7 18.3
2014-Aug-27 06:19 360 3 gusting 6 17.8
2014-Aug-27 06:09 355 2 gusting 6 17.2
2014-Aug-27 05:59 005 3 gusting 7 17.2
2014-Aug-27 05:49 344 0 gusting 6 17.2
2014-Aug-27 05:39 360 4 gusting 6 17.2
2014-Aug-27 05:29 360 3 gusting 5 17.2
2014-Aug-27 05:19 355 0 gusting 6 17.8
2014-Aug-27 05:09 360 3 gusting 8 17.8
2014-Aug-27 04:59 360 3 gusting 9 17.8
2014-Aug-27 04:49 019 6 gusting 8 17.8
2014-Aug-27 04:39 355 5 gusting 11 17.8
2014-Aug-27 04:29 355 5 gusting 10 17.8
2014-Aug-27 04:19 013 6 gusting 10 17.8
2014-Aug-27 04:09 005 6 gusting 10 18.3
2014-Aug-27 03:59 005 5 gusting 9 18.9
2014-Aug-27 03:49 005 5 gusting 7 18.9
2014-Aug-27 03:39 343 4 gusting 12 18.9
2014-Aug-27 03:29 005 5 gusting 9 19.4
2014-Aug-27 03:19 318 6 gusting 10 19.4
2014-Aug-27 03:09 327 7 gusting 11 19.4
2014-Aug-27 02:59 005 5 gusting 10 19.4
2014-Aug-27 02:49 005 6 gusting 9 19.4
2014-Aug-27 02:39 360 5 gusting 9 19.4
2014-Aug-27 02:29 360 4 gusting 10 19.4
2014-Aug-27 02:19 355 4 gusting 11 20.0
2014-Aug-27 02:09 329 6 gusting 13 20.0
2014-Aug-27 01:59 355 5 gusting 10 20.0
2014-Aug-27 01:49 360 4 gusting 8 20.0
2014-Aug-27 01:39 030 4 gusting 10 20.0
2014-Aug-27 01:29 355 6 gusting 9 20.0
2014-Aug-27 01:19 360 4 gusting 7 20.0
2014-Aug-27 01:09 360 1 gusting 8 20.0
2014-Aug-27 00:59 042 3 gusting 9 20.0
2014-Aug-27 00:49 009 5 gusting 10 20.6
2014-Aug-27 00:39 311 3 gusting 10 20.6
2014-Aug-27 00:29 327 4 gusting 8 20.6
2014-Aug-27 00:19 024 5 gusting 9 20.6
2014-Aug-27 00:09 360 3 gusting 10 21.1
2014-Aug-26 23:59 360 5 gusting 12 21.1
2014-Aug-26 23:49 325 6 gusting 14 21.1
2014-Aug-26 23:39 333 6 gusting 13 21.1
2014-Aug-26 23:29 336 4 gusting 12 21.1
2014-Aug-26 23:19 009 4 gusting 7 21.7
2014-Aug-26 23:09 306 2 gusting 8 21.7
2014-Aug-26 22:59 014 4 gusting 16 22.2
2014-Aug-26 22:49 350 6 gusting 13 22.2
2014-Aug-26 22:39 346 7 gusting 18 22.2
2014-Aug-26 22:29 292 2 gusting 8 22.2
2014-Aug-26 22:19 348 5 gusting 18 22.2
2014-Aug-26 22:09 350 6 gusting 16 22.2
2014-Aug-26 21:59 345 5 gusting 14 22.2
2014-Aug-26 21:49 331 6 gusting 14 22.2
2014-Aug-26 21:39 337 6 gusting 16 22.2
2014-Aug-26 21:29 298 3 gusting 13 22.8
2014-Aug-26 21:19 355 3 gusting 7 22.8
2014-Aug-26 21:09 339 3 gusting 7 22.8
2014-Aug-26 20:59 355 1 gusting 7 23.3
2014-Aug-26 20:49 030 0 gusting 3 23.3
2014-Aug-26 20:39 355 23.3
2014-Aug-26 20:29 360 0 gusting 4 23.9
2014-Aug-26 20:19 341 0 gusting 6 23.9
2014-Aug-26 20:09 344 1 gusting 6 23.9
2014-Aug-26 19:59 330 24.4
2014-Aug-26 19:49 334 24.4
2014-Aug-26 19:39 348 24.4
2014-Aug-26 19:29 330 25.0
2014-Aug-26 19:09 293 25.0
2014-Aug-26 18:59 270 1 gusting 8 25.6
2014-Aug-26 18:49 276 2 gusting 6 25.6
2014-Aug-26 18:39 340 1 gusting 7 26.1
2014-Aug-26 18:29 029 2 gusting 7 26.7
2014-Aug-26 18:19 324 2 gusting 12 27.2
2014-Aug-26 18:09 310 1 gusting 6 27.2
2014-Aug-26 17:59 351 1 gusting 9 27.8
2014-Aug-26 17:49 342 3 gusting 12 28.3
2014-Aug-26 17:39 292 2 gusting 7 28.3
2014-Aug-26 17:30 276 3 gusting 9 28.9
2014-Aug-26 17:19 296 2 gusting 9 28.9
2014-Aug-26 17:09 315 0 gusting 5 29.4
2014-Aug-26 16:59 318 1 gusting 10 28.9
2014-Aug-26 16:49 321 2 gusting 9 28.9
2014-Aug-26 16:39 283 2 gusting 8 28.9
2014-Aug-26 16:29 314 284 gusting 284 28.9
2014-Aug-26 16:19 340 3 gusting 9 29.4
2014-Aug-26 16:09 310 3 gusting 6 29.4
2014-Aug-26 15:59 288 1 gusting 6 29.4
2014-Aug-26 15:49 005 1 gusting 8 29.4
2014-Aug-26 15:39 324 3 gusting 8 30.0
2014-Aug-26 15:29 235 3 gusting 9 30.6
2014-Aug-26 15:19 288 3 gusting 8 31.1
2014-Aug-26 15:09 268 4 gusting 11 31.7
2014-Aug-26 14:59 272 3 gusting 7 31.7
2014-Aug-26 14:49 010 1 gusting 6 31.7
2014-Aug-26 14:39 290 3 gusting 11 31.7
2014-Aug-26 14:29 286 2 gusting 8 31.7
2014-Aug-26 14:19 343 2 gusting 7 31.7
2014-Aug-26 14:09 277 1 gusting 7 31.7
2014-Aug-26 13:59 334 1 gusting 9 31.7
2014-Aug-26 13:49 332 3 gusting 7 31.1
2014-Aug-26 13:39 276 0 gusting 6 30.6
2014-Aug-26 13:29 298 1 gusting 8 30.0
2014-Aug-26 13:19 355 2 gusting 13 30.0
2014-Aug-26 13:09 288 3 gusting 11 30.0
2014-Aug-26 12:59 355 5 gusting 10 30.0
2014-Aug-26 12:49 317 4 gusting 10 30.0
2014-Aug-26 12:39 299 4 gusting 10 30.0
2014-Aug-26 12:29 323 4 gusting 10 30.0
2014-Aug-26 12:19 321 4 gusting 12 30.0
2014-Aug-26 12:09 321 4 gusting 9 30.0
2014-Aug-26 11:49 346 5 gusting 12 29.4
2014-Aug-26 11:39 296 6 gusting 10 30.0
2014-Aug-26 11:29 331 3 gusting 8 30.0
2014-Aug-26 11:19 338 3 gusting 8 30.0
2014-Aug-26 11:09 360 2 gusting 7 30.0
2014-Aug-26 10:59 322 3 gusting 6 30.0
2014-Aug-26 10:49 264 2 gusting 7 30.0
2014-Aug-26 10:39 271 1 gusting 6 29.4
2014-Aug-26 10:29 222 0 gusting 7 29.4
2014-Aug-26 10:19 194 0 gusting 4 28.9
2014-Aug-26 10:09 163 0 gusting 6 28.9
2014-Aug-26 09:59 181 0 gusting 5 28.9
2014-Aug-26 09:49 286 28.9
2014-Aug-26 09:39 240 2 gusting 4 28.3
2014-Aug-26 09:29 184 27.8
2014-Aug-26 09:19 184 0 gusting 2 27.2
2014-Aug-26 09:09 186 27.2
2014-Aug-26 08:59 183 27.2
2014-Aug-26 08:49 175 26.1
2014-Aug-26 08:39 069 25.6
2014-Aug-26 08:29 069 25.0
2014-Aug-26 08:19 069 24.4
2014-Aug-26 08:09 074 0 gusting 3 23.9
2014-Aug-26 07:59 062 1 gusting 4 23.3
2014-Aug-26 07:49 091 0 gusting 4 22.8
2014-Aug-26 07:39 069 1 gusting 4 22.2
2014-Aug-26 07:29 067 0 gusting 4 22.2
2014-Aug-26 07:19 074 22.2
2014-Aug-26 07:09 030 22.8
2014-Aug-26 06:59 333 0 gusting 2 22.2
2014-Aug-26 06:49 333 0 gusting 3 21.1
2014-Aug-26 06:39 333 20.6
2014-Aug-26 06:29 333 0 gusting 2 20.0
2014-Aug-26 06:19 331 19.4
2014-Aug-26 06:09 331 19.4
2014-Aug-26 05:59 331 19.4
2014-Aug-26 05:49 335 19.4
2014-Aug-26 05:39 331 0 gusting 6 19.4
2014-Aug-26 05:29 355 5 gusting 8 20.0
2014-Aug-26 05:19 319 20.0
2014-Aug-26 05:09 288 20.0
2014-Aug-26 04:59 277 0 gusting 4 20.6
2014-Aug-26 04:49 348 3 gusting 10 20.6
2014-Aug-26 04:39 317 4 gusting 9 20.6
2014-Aug-26 04:29 351 4 gusting 8 20.6
2014-Aug-26 04:19 331 4 gusting 8 20.6
2014-Aug-26 04:09 355 4 gusting 10 20.6
2014-Aug-26 03:59 355 4 gusting 10 20.0
2014-Aug-26 03:49 360 3 gusting 7 19.4
2014-Aug-26 03:39 016 19.4
2014-Aug-26 03:29 347 20.0
2014-Aug-26 03:19 347 20.6
2014-Aug-26 03:09 355 21.1
2014-Aug-26 02:59 355 21.7
2014-Aug-26 02:49 360 1 gusting 10 21.7
2014-Aug-26 02:39 005 4 gusting 9 21.7
2014-Aug-26 02:29 342 6 gusting 12 21.7
2014-Aug-26 02:19 324 5 gusting 12 22.2
2014-Aug-26 02:09 343 4 gusting 9 21.7
2014-Aug-26 01:59 355 6 gusting 11 21.7
2014-Aug-26 01:49 338 4 gusting 10 21.7
2014-Aug-26 01:39 005 5 gusting 8 21.7
2014-Aug-26 01:29 343 5 gusting 12 22.2
2014-Aug-26 01:19 346 4 gusting 11 22.2
2014-Aug-26 01:09 355 3 gusting 8 22.8
2014-Aug-26 00:59 012 4 gusting 10 22.8
2014-Aug-26 00:49 326 6 gusting 10 22.8
2014-Aug-26 00:39 346 4 gusting 9 22.8
2014-Aug-26 00:29 319 5 gusting 11 22.8
2014-Aug-26 00:19 331 3 gusting 8 23.3
2014-Aug-26 00:09 271 3 gusting 10 23.3
2014-Aug-25 23:59 011 2 gusting 8 23.3
2014-Aug-25 23:49 300 4 gusting 7 23.3
2014-Aug-25 23:39 331 2 gusting 7 23.9
2014-Aug-25 23:29 322 2 gusting 7 23.9
2014-Aug-25 23:19 322 1 gusting 9 24.4
2014-Aug-25 23:09 342 2 gusting 9 24.4
2014-Aug-25 22:59 360 4 gusting 9 24.4
2014-Aug-25 22:49 346 284 gusting 284 24.4
2014-Aug-25 22:39 355 1 gusting 6 24.4
2014-Aug-25 22:29 034 0 gusting 5 24.4
2014-Aug-25 22:19 336 2 gusting 9 25.0
2014-Aug-25 22:09 355 1 gusting 6 25.0
2014-Aug-25 21:59 333 1 gusting 6 25.0
2014-Aug-25 21:49 338 2 gusting 6 25.0
2014-Aug-25 21:29 329 0 gusting 5 25.0
2014-Aug-25 21:19 341 24.4
2014-Aug-25 21:09 346 24.4
2014-Aug-25 20:59 285 24.4
2014-Aug-25 20:49 307 24.4
2014-Aug-25 20:39 246 24.4
2014-Aug-25 20:29 246 24.4
2014-Aug-25 20:19 246 25.0
2014-Aug-25 20:09 246 25.6
2014-Aug-25 19:59 246 25.6
2014-Aug-25 19:49 246 26.1
2014-Aug-25 19:39 247 26.1
2014-Aug-25 19:29 250 0 gusting 2 26.1
2014-Aug-25 19:19 251 0 gusting 5 26.7
2014-Aug-25 19:09 248 0 gusting 2 27.2
2014-Aug-25 18:59 254 27.2
2014-Aug-25 18:49 237 0 gusting 3 28.3
2014-Aug-25 18:39 225 0 gusting 2 28.3
2014-Aug-25 18:29 225 28.9
2014-Aug-25 18:09 198 0 gusting 6 29.4
2014-Aug-25 17:59 211 1 gusting 8 29.4
2014-Aug-25 17:49 200 1 gusting 5 30.0
2014-Aug-25 17:39 211 1 gusting 8 30.6
2014-Aug-25 17:29 192 1 gusting 7 30.6
2014-Aug-25 17:19 205 1 gusting 8 30.6
2014-Aug-25 17:09 217 1 gusting 7 31.1